Time;durP1;ratioP1;P1;durP2;ratioP2;P2;SDS_P1;SDS_P2;PMS_P1;PMS_P2;Temp;Humidity;BMP_temperature;BMP_pressure;BME280_temperature;BME280_humidity;BME280_pressure;Samples;Min_cycle;Max_cycle;Signal;HPM_P1;HPM_P2
2024/03/12 00:00:43;;;;;;;7.07;3.92;;;;;;;;;;5079993;28;20016;-58
2024/03/12 00:03:11;;;;;;;5.10;3.53;;;;;;;;;;5089912;28;20046;-59
2024/03/12 00:05:37;;;;;;;10.15;3.90;;;;;;;;;;5085585;28;20047;-58
2024/03/12 00:08:04;;;;;;;5.75;3.63;;;;;;;;;;5089156;28;20380;-59
2024/03/12 00:10:30;;;;;;;5.97;3.85;;;;;;;;;;5090209;28;20158;-59
2024/03/12 00:12:56;;;;;;;6.82;3.88;;;;;;;;;;5084654;28;20515;-58
2024/03/12 00:15:23;;;;;;;8.02;3.83;;;;;;;;;;5084093;28;20361;-59
2024/03/12 00:17:49;;;;;;;6.30;3.97;;;;;;;;;;5092525;28;20128;-53
2024/03/12 00:20:24;;;;;;;5.55;3.70;;;;;;;;;;5080434;28;20445;-56
2024/03/12 00:22:50;;;;;;;5.93;3.50;;;;;;;;;;5084399;28;20035;-54
2024/03/12 00:25:19;;;;;;;7.95;3.70;;;;;;;;;;5092016;28;20045;-53
2024/03/12 00:27:45;;;;;;;6.97;4.10;;;;;;;;;;5087017;28;20035;-54
2024/03/12 00:30:11;;;;;;;5.93;3.63;;;;;;;;;;5081944;28;20028;-54
2024/03/12 00:32:38;;;;;;;5.53;4.03;;;;;;;;;;5087485;28;20035;-54
2024/03/12 00:35:05;;;;;;;7.18;3.83;;;;;;;;;;5091331;28;20368;-54
2024/03/12 00:37:31;;;;;;;5.00;3.88;;;;;;;;;;5089940;28;20032;-53
2024/03/12 00:39:57;;;;;;;8.25;4.32;;;;;;;;;;5090272;28;20447;-51
2024/03/12 00:42:23;;;;;;;8.02;4.35;;;;;;;;;;5074400;28;20497;-54
2024/03/12 00:44:49;;;;;;;5.82;3.72;;;;;;;;;;5084141;28;20023;-55
2024/03/12 00:47:16;;;;;;;8.38;4.40;;;;;;;;;;5097430;28;20036;-55
2024/03/12 00:49:43;;;;;;;9.20;4.68;;;;;;;;;;5091996;28;20052;-54
2024/03/12 00:52:10;;;;;;;6.43;4.18;;;;;;;;;;5089290;28;20064;-54
2024/03/12 00:54:36;;;;;;;7.10;3.75;;;;;;;;;;5089204;28;20043;-56
2024/03/12 00:57:05;;;;;;;6.97;3.78;;;;;;;;;;5089168;28;20142;-54
2024/03/12 00:59:31;;;;;;;4.75;3.50;;;;;;;;;;5103963;28;20034;-54
2024/03/12 01:01:57;;;;;;;5.63;3.88;;;;;;;;;;5088404;28;20455;-54
2024/03/12 01:04:23;;;;;;;5.50;3.42;;;;;;;;;;5086594;28;20031;-53
2024/03/12 01:06:49;;;;;;;5.70;3.92;;;;;;;;;;5091758;28;20391;-55
2024/03/12 01:09:17;;;;;;;6.10;3.35;;;;;;;;;;5088014;28;20063;-52
2024/03/12 01:11:43;;;;;;;10.05;3.55;;;;;;;;;;5088842;28;20032;-52
2024/03/12 01:14:09;;;;;;;6.13;3.60;;;;;;;;;;5079335;28;20099;-52
2024/03/12 01:16:35;;;;;;;6.95;4.32;;;;;;;;;;5091658;28;20032;-54
2024/03/12 01:19:01;;;;;;;4.65;3.22;;;;;;;;;;5089511;28;20412;-54
2024/03/12 01:21:27;;;;;;;7.85;4.18;;;;;;;;;;5078393;28;20031;-54
2024/03/12 01:23:54;;;;;;;6.07;3.50;;;;;;;;;;5078222;28;20165;-56
2024/03/12 01:26:20;;;;;;;7.45;4.05;;;;;;;;;;5095149;28;20029;-53
2024/03/12 01:28:46;;;;;;;6.25;3.55;;;;;;;;;;5078050;28;20032;-58
2024/03/12 01:31:14;;;;;;;7.30;4.00;;;;;;;;;;5088301;28;20104;-59
2024/03/12 01:33:41;;;;;;;7.63;3.63;;;;;;;;;;5080749;28;20042;-58
2024/03/12 01:36:18;;;;;;;6.00;3.72;;;;;;;;;;5091648;28;20103;-58
2024/03/12 01:38:48;;;;;;;6.30;3.70;;;;;;;;;;5087828;28;20503;-58
2024/03/12 01:41:15;;;;;;;6.35;3.75;;;;;;;;;;5090041;28;20036;-59
2024/03/12 01:43:41;;;;;;;6.25;3.47;;;;;;;;;;5089432;28;20032;-57
2024/03/12 01:46:07;;;;;;;6.03;3.72;;;;;;;;;;5094997;28;20035;-58
2024/03/12 01:48:33;;;;;;;5.70;3.50;;;;;;;;;;5091637;28;20024;-59
2024/03/12 01:50:59;;;;;;;5.75;3.95;;;;;;;;;;5085548;28;20032;-58
2024/03/12 01:53:25;;;;;;;6.82;3.97;;;;;;;;;;5085663;28;20030;-58
2024/03/12 01:55:51;;;;;;;7.38;3.92;;;;;;;;;;5094483;28;20032;-58
2024/03/12 01:58:17;;;;;;;5.95;4.00;;;;;;;;;;5088325;28;20020;-58
2024/03/12 02:00:44;;;;;;;9.52;4.38;;;;;;;;;;5088122;28;20032;-58
2024/03/12 02:03:10;;;;;;;5.72;3.97;;;;;;;;;;5078298;28;20520;-58
2024/03/12 02:05:36;;;;;;;5.45;3.53;;;;;;;;;;5076397;28;20032;-57
2024/03/12 02:08:02;;;;;;;4.80;3.30;;;;;;;;;;5090072;28;20030;-58
2024/03/12 02:10:28;;;;;;;10.35;3.58;;;;;;;;;;5089316;28;20119;-59
2024/03/12 02:12:54;;;;;;;5.88;4.15;;;;;;;;;;5091795;28;20031;-59
2024/03/12 02:15:23;;;;;;;7.97;4.65;;;;;;;;;;5086503;28;20391;-58
2024/03/12 02:17:51;;;;;;;7.28;3.53;;;;;;;;;;5082210;28;20033;-58
2024/03/12 02:20:17;;;;;;;7.60;3.97;;;;;;;;;;5090045;28;20384;-58
2024/03/12 02:22:43;;;;;;;5.38;3.47;;;;;;;;;;5087784;28;20025;-59
2024/03/12 02:25:10;;;;;;;6.47;4.32;;;;;;;;;;5088324;28;20024;-59
2024/03/12 02:27:36;;;;;;;9.95;4.47;;;;;;;;;;5084789;28;20111;-59
2024/03/12 02:30:02;;;;;;;6.10;3.92;;;;;;;;;;5081091;28;20032;-59
2024/03/12 02:32:28;;;;;;;6.82;4.18;;;;;;;;;;5097039;28;20622;-59
2024/03/12 02:34:54;;;;;;;8.30;4.50;;;;;;;;;;5090706;28;20081;-59
2024/03/12 02:37:23;;;;;;;6.50;3.78;;;;;;;;;;5087805;28;20079;-56
2024/03/12 02:39:49;;;;;;;8.45;4.07;;;;;;;;;;5085183;28;20543;-59
2024/03/12 02:42:15;;;;;;;6.85;4.28;;;;;;;;;;5087712;28;20024;-59
2024/03/12 02:44:41;;;;;;;5.88;4.07;;;;;;;;;;5082413;28;20081;-57
2024/03/12 02:47:07;;;;;;;6.80;4.00;;;;;;;;;;5093754;28;20028;-58
2024/03/12 02:49:35;;;;;;;9.25;4.68;;;;;;;;;;5092982;28;20020;-58
2024/03/12 02:52:01;;;;;;;6.70;4.78;;;;;;;;;;5090042;28;20559;-57
2024/03/12 02:54:27;;;;;;;7.15;4.18;;;;;;;;;;5088352;28;20028;-56
2024/03/12 02:56:56;;;;;;;5.80;3.80;;;;;;;;;;5091702;28;20043;-57
2024/03/12 02:59:27;;;;;;;7.95;4.05;;;;;;;;;;5086872;28;20031;-57
2024/03/12 03:01:53;;;;;;;7.22;4.03;;;;;;;;;;5092241;28;20031;-57
2024/03/12 03:04:21;;;;;;;6.97;4.05;;;;;;;;;;5091349;28;20392;-57
2024/03/12 03:06:50;;;;;;;6.70;3.90;;;;;;;;;;5083807;28;20024;-58
2024/03/12 03:09:16;;;;;;;8.10;4.88;;;;;;;;;;5079454;28;20495;-57
2024/03/12 03:11:42;;;;;;;4.88;3.80;;;;;;;;;;5087222;28;20031;-58
2024/03/12 03:14:08;;;;;;;4.70;3.25;;;;;;;;;;5092812;28;20445;-58
2024/03/12 03:16:34;;;;;;;4.75;3.13;;;;;;;;;;5086157;28;20031;-57
2024/03/12 03:19:00;;;;;;;9.02;3.72;;;;;;;;;;5089008;28;20048;-58
2024/03/12 03:21:26;;;;;;;7.60;3.55;;;;;;;;;;5090747;28;20024;-56
2024/03/12 03:23:52;;;;;;;7.88;3.95;;;;;;;;;;5090471;28;20028;-55
2024/03/12 03:26:18;;;;;;;5.00;3.75;;;;;;;;;;5092738;28;20035;-57
2024/03/12 03:28:44;;;;;;;6.43;4.45;;;;;;;;;;5090257;28;20069;-57
2024/03/12 03:31:10;;;;;;;6.03;3.90;;;;;;;;;;5088253;28;20111;-58
2024/03/12 03:33:41;;;;;;;5.68;3.72;;;;;;;;;;5093808;28;20089;-58
2024/03/12 03:36:07;;;;;;;6.55;3.75;;;;;;;;;;5079356;28;20028;-58
2024/03/12 03:38:39;;;;;;;6.03;4.13;;;;;;;;;;5084401;28;20035;-58
2024/03/12 03:41:05;;;;;;;5.50;3.45;;;;;;;;;;5086967;28;20494;-56
2024/03/12 03:43:31;;;;;;;5.95;3.58;;;;;;;;;;5079040;28;20024;-57
2024/03/12 03:45:57;;;;;;;7.60;3.83;;;;;;;;;;5102453;28;20058;-57
2024/03/12 03:48:24;;;;;;;6.18;3.65;;;;;;;;;;5080833;28;20467;-58
2024/03/12 03:50:49;;;;;;;5.28;3.67;;;;;;;;;;5089293;28;20020;-57
2024/03/12 03:53:15;;;;;;;6.85;3.47;;;;;;;;;;5090725;28;20023;-58
2024/03/12 03:55:41;;;;;;;5.30;3.72;;;;;;;;;;5081931;28;20055;-58
2024/03/12 03:58:07;;;;;;;4.10;3.28;;;;;;;;;;5090502;28;20077;-57
2024/03/12 04:00:35;;;;;;;6.05;3.28;;;;;;;;;;5092125;28;20459;-57
2024/03/12 04:03:02;;;;;;;7.75;4.15;;;;;;;;;;5091762;28;20048;-58
2024/03/12 04:05:28;;;;;;;7.35;3.88;;;;;;;;;;5090907;28;20055;-58
2024/03/12 04:07:54;;;;;;;6.63;4.38;;;;;;;;;;5090678;28;20020;-55
2024/03/12 04:10:22;;;;;;;5.63;3.80;;;;;;;;;;5090563;28;20073;-58
2024/03/12 04:12:48;;;;;;;7.70;4.10;;;;;;;;;;5085028;28;20038;-57
2024/03/12 04:15:16;;;;;;;5.60;3.85;;;;;;;;;;5087606;28;20475;-58
2024/03/12 04:17:43;;;;;;;8.65;4.28;;;;;;;;;;5091963;28;20039;-57
2024/03/12 04:20:11;;;;;;;7.80;4.38;;;;;;;;;;5086148;28;20043;-55
2024/03/12 04:22:40;;;;;;;7.13;4.20;;;;;;;;;;5090879;28;20020;-57
2024/03/12 04:25:07;;;;;;;8.05;4.05;;;;;;;;;;5087222;28;20073;-58
2024/03/12 04:27:33;;;;;;;7.13;3.78;;;;;;;;;;5076771;28;20024;-57
2024/03/12 04:29:59;;;;;;;7.53;4.00;;;;;;;;;;5086194;28;20044;-58
2024/03/12 04:32:27;;;;;;;7.70;4.25;;;;;;;;;;5092985;28;20082;-58
2024/03/12 04:34:53;;;;;;;6.70;4.13;;;;;;;;;;5098095;28;20028;-56
2024/03/12 04:37:19;;;;;;;9.35;3.75;;;;;;;;;;5090524;28;20032;-58
2024/03/12 04:39:45;;;;;;;6.28;3.97;;;;;;;;;;5087204;28;20484;-58
2024/03/12 04:42:13;;;;;;;8.10;4.18;;;;;;;;;;5085008;28;20080;-58
2024/03/12 04:44:39;;;;;;;9.55;4.55;;;;;;;;;;5090780;28;20028;-58
2024/03/12 04:47:05;;;;;;;7.18;4.32;;;;;;;;;;5091599;28;20039;-58
2024/03/12 04:49:31;;;;;;;7.80;4.20;;;;;;;;;;5089385;28;20106;-57
2024/03/12 04:51:57;;;;;;;5.60;3.75;;;;;;;;;;5091280;28;20061;-57
2024/03/12 04:54:23;;;;;;;6.00;3.65;;;;;;;;;;5091514;28;20057;-58
2024/03/12 04:56:50;;;;;;;6.20;3.53;;;;;;;;;;5092235;28;20020;-58
2024/03/12 04:59:17;;;;;;;6.13;3.72;;;;;;;;;;5080296;28;20435;-59
2024/03/12 05:01:48;;;;;;;7.25;3.78;;;;;;;;;;5083390;28;20024;-58
2024/03/12 05:04:14;;;;;;;6.90;4.13;;;;;;;;;;5081193;28;20024;-58
2024/03/12 05:06:40;;;;;;;7.80;4.47;;;;;;;;;;5089044;28;20118;-58
2024/03/12 05:09:06;;;;;;;5.03;3.83;;;;;;;;;;5092250;28;20043;-58
2024/03/12 05:11:38;;;;;;;5.00;3.70;;;;;;;;;;5084387;28;20073;-58
2024/03/12 05:14:04;;;;;;;7.97;4.63;;;;;;;;;;5086816;28;20024;-58
2024/03/12 05:16:31;;;;;;;5.82;3.63;;;;;;;;;;5090933;28;20027;-59
2024/03/12 05:18:58;;;;;;;6.00;4.60;;;;;;;;;;5087442;28;20045;-59
2024/03/12 05:21:26;;;;;;;6.57;3.88;;;;;;;;;;5088555;28;20046;-58
2024/03/12 05:23:52;;;;;;;7.47;4.18;;;;;;;;;;5093688;28;20024;-58
2024/03/12 05:26:18;;;;;;;8.13;4.05;;;;;;;;;;5092662;28;20108;-59
2024/03/12 05:28:44;;;;;;;8.55;4.93;;;;;;;;;;5093207;28;20027;-58
2024/03/12 05:31:20;;;;;;;8.43;4.30;;;;;;;;;;5083285;28;20066;-58
2024/03/12 05:33:46;;;;;;;6.13;4.30;;;;;;;;;;5086751;28;20035;-58
2024/03/12 05:36:14;;;;;;;7.85;4.57;;;;;;;;;;5094012;28;20031;-58
2024/03/12 05:38:55;;;;;;;8.38;4.70;;;;;;;;;;5085785;28;20105;-58
2024/03/12 05:41:29;;;;;;;9.93;4.38;;;;;;;;;;5084597;28;20575;-57
2024/03/12 05:49:24;;;;;;;8.50;5.40;;;;;;;;;;5095043;28;20489;-58
2024/03/12 05:51:52;;;;;;;8.45;5.00;;;;;;;;;;5092248;28;20032;-57
2024/03/12 05:54:18;;;;;;;7.57;5.07;;;;;;;;;;5093843;28;20028;-59
2024/03/12 05:56:44;;;;;;;9.40;5.53;;;;;;;;;;5092660;28;20099;-58
2024/03/12 05:59:10;;;;;;;10.60;5.93;;;;;;;;;;5090940;28;20043;-59
2024/03/12 06:01:37;;;;;;;7.68;5.80;;;;;;;;;;5093755;28;20024;-58
2024/03/12 06:04:04;;;;;;;8.32;5.10;;;;;;;;;;5081984;28;20029;-59
2024/03/12 06:06:32;;;;;;;9.32;5.05;;;;;;;;;;5084645;28;20043;-59
2024/03/12 06:08:58;;;;;;;9.25;5.03;;;;;;;;;;5093953;28;20028;-53
2024/03/12 06:11:24;;;;;;;5.15;3.88;;;;;;;;;;5088131;28;20142;-54
2024/03/12 06:13:50;;;;;;;7.00;4.15;;;;;;;;;;5093127;28;20038;-54
2024/03/12 06:16:18;;;;;;;6.10;4.57;;;;;;;;;;5093760;28;20032;-53
2024/03/12 06:18:44;;;;;;;7.75;4.50;;;;;;;;;;5092487;28;20063;-54
2024/03/12 06:21:11;;;;;;;5.72;3.97;;;;;;;;;;5089323;28;20050;-55
2024/03/12 06:23:37;;;;;;;6.28;4.30;;;;;;;;;;5095032;28;20125;-56
2024/03/12 06:26:02;;;;;;;6.93;4.30;;;;;;;;;;5091405;28;20804;-52
2024/03/12 06:28:30;;;;;;;7.00;4.18;;;;;;;;;;5091630;28;20047;-55
2024/03/12 06:30:57;;;;;;;5.40;4.10;;;;;;;;;;5092270;28;20479;-55
2024/03/12 06:33:23;;;;;;;6.20;4.05;;;;;;;;;;5092049;28;20024;-56
2024/03/12 06:35:49;;;;;;;6.05;4.18;;;;;;;;;;5091558;28;20028;-55
2024/03/12 06:38:15;;;;;;;7.30;4.47;;;;;;;;;;5092011;28;20028;-53
2024/03/12 06:40:41;;;;;;;11.73;4.60;;;;;;;;;;5089561;28;20054;-55
2024/03/12 06:43:09;;;;;;;7.70;4.47;;;;;;;;;;5092231;28;20456;-55
2024/03/12 06:45:37;;;;;;;7.85;4.88;;;;;;;;;;5091429;28;20504;-55
2024/03/12 06:48:03;;;;;;;11.68;4.60;;;;;;;;;;5092031;28;20025;-54
2024/03/12 06:50:29;;;;;;;7.80;4.68;;;;;;;;;;5089322;28;20551;-51
2024/03/12 06:52:56;;;;;;;9.73;4.65;;;;;;;;;;5087972;28;20417;-55
2024/03/12 06:55:26;;;;;;;11.93;5.25;;;;;;;;;;5086444;28;20455;-54
2024/03/12 06:57:59;;;;;;;7.50;5.20;;;;;;;;;;5085193;28;20075;-55
2024/03/12 07:00:39;;;;;;;5.72;3.88;;;;;;;;;;5083917;28;20036;-55
2024/03/12 07:03:06;;;;;;;7.22;4.60;;;;;;;;;;5096472;28;20020;-54
2024/03/12 07:05:43;;;;;;;6.63;4.32;;;;;;;;;;5089322;28;20048;-53
2024/03/12 07:08:09;;;;;;;8.13;5.20;;;;;;;;;;5091093;28;20051;-56
2024/03/12 07:10:37;;;;;;;10.32;4.78;;;;;;;;;;5079476;28;20036;-54
2024/03/12 07:13:04;;;;;;;9.60;5.50;;;;;;;;;;5079793;28;20043;-56
2024/03/12 07:15:34;;;;;;;10.80;6.05;;;;;;;;;;5092545;28;20153;-53
2024/03/12 07:17:59;;;;;;;11.48;6.13;;;;;;;;;;5092086;28;20055;-53
2024/03/12 07:20:27;;;;;;;10.15;5.95;;;;;;;;;;5091826;28;20035;-55
2024/03/12 07:22:54;;;;;;;10.55;5.57;;;;;;;;;;5091646;28;20525;-54
2024/03/12 07:25:20;;;;;;;9.48;6.00;;;;;;;;;;5087330;28;20025;-55
2024/03/12 07:27:46;;;;;;;11.68;6.68;;;;;;;;;;5088773;28;20055;-54
2024/03/12 07:30:16;;;;;;;15.13;7.05;;;;;;;;;;5091029;28;20062;-55
2024/03/12 07:32:42;;;;;;;10.82;6.30;;;;;;;;;;5093585;28;20104;-54
2024/03/12 07:35:08;;;;;;;11.18;6.55;;;;;;;;;;5090353;28;20445;-54
2024/03/12 07:37:38;;;;;;;12.80;6.63;;;;;;;;;;5090254;28;20024;-55
2024/03/12 07:40:04;;;;;;;11.25;6.25;;;;;;;;;;5090763;28;20054;-55
2024/03/12 07:42:30;;;;;;;12.38;6.47;;;;;;;;;;5090388;28;20028;-53
2024/03/12 07:44:57;;;;;;;10.68;6.50;;;;;;;;;;5084672;28;20039;-55
2024/03/12 07:47:24;;;;;;;9.93;6.07;;;;;;;;;;5091551;28;20024;-54
2024/03/12 07:49:53;;;;;;;11.00;6.45;;;;;;;;;;5091788;28;20434;-54
2024/03/12 07:52:19;;;;;;;12.23;6.43;;;;;;;;;;5091332;28;20417;-56
2024/03/12 07:54:47;;;;;;;9.80;5.80;;;;;;;;;;5090847;28;20492;-53
2024/03/12 07:57:16;;;;;;;11.32;6.18;;;;;;;;;;5091101;28;20051;-54
2024/03/12 07:59:43;;;;;;;8.45;5.45;;;;;;;;;;5091514;28;20020;-54
2024/03/12 08:02:13;;;;;;;10.95;6.28;;;;;;;;;;5091174;28;20113;-54
2024/03/12 08:04:42;;;;;;;12.65;5.70;;;;;;;;;;5091279;28;20095;-53
2024/03/12 08:07:09;;;;;;;13.05;5.75;;;;;;;;;;5081485;28;20111;-53
2024/03/12 08:09:35;;;;;;;8.55;5.35;;;;;;;;;;5078610;28;20108;-54
2024/03/12 08:12:01;;;;;;;9.85;5.50;;;;;;;;;;5090683;28;20510;-55
2024/03/12 08:14:28;;;;;;;10.52;5.95;;;;;;;;;;5091191;28;20032;-53
2024/03/12 08:16:54;;;;;;;13.52;5.50;;;;;;;;;;5091326;28;20494;-53
2024/03/12 08:19:25;;;;;;;11.63;5.82;;;;;;;;;;5090570;28;20056;-54
2024/03/12 08:21:51;;;;;;;10.18;5.13;;;;;;;;;;5091219;28;20035;-54
2024/03/12 08:24:17;;;;;;;8.80;4.88;;;;;;;;;;5089333;28;20059;-52
2024/03/12 08:26:43;;;;;;;10.30;5.00;;;;;;;;;;5089792;28;20062;-53
2024/03/12 08:29:11;;;;;;;7.38;4.97;;;;;;;;;;5090862;28;20016;-57
2024/03/12 08:31:38;;;;;;;8.15;4.40;;;;;;;;;;5091943;28;20050;-56
2024/03/12 08:34:04;;;;;;;9.68;4.85;;;;;;;;;;5096620;28;20025;-56
2024/03/12 08:36:30;;;;;;;9.93;4.38;;;;;;;;;;5090870;28;20095;-56
2024/03/12 08:38:59;;;;;;;10.25;4.90;;;;;;;;;;5085919;28;20048;-56
2024/03/12 08:41:26;;;;;;;8.57;4.50;;;;;;;;;;5089778;28;20032;-57
2024/03/12 08:43:52;;;;;;;8.07;4.65;;;;;;;;;;5085070;28;20063;-56
2024/03/12 08:46:19;;;;;;;5.90;3.92;;;;;;;;;;5090701;28;20147;-56
2024/03/12 08:48:45;;;;;;;6.97;4.30;;;;;;;;;;5090511;28;20012;-55
2024/03/12 08:51:13;;;;;;;4.47;2.95;;;;;;;;;;5087083;28;20032;-56
2024/03/12 08:53:39;;;;;;;6.95;3.65;;;;;;;;;;5094824;28;20476;-57
2024/03/12 08:56:05;;;;;;;6.32;3.72;;;;;;;;;;5094663;28;20024;-57
2024/03/12 08:58:32;;;;;;;6.38;3.67;;;;;;;;;;5093906;28;20730;-56
2024/03/12 09:00:58;;;;;;;5.60;3.30;;;;;;;;;;5087567;28;20066;-57
2024/03/12 09:03:24;;;;;;;7.85;4.03;;;;;;;;;;5092630;28;20059;-56
2024/03/12 09:05:50;;;;;;;5.10;3.50;;;;;;;;;;5087059;28;20460;-57
2024/03/12 09:08:17;;;;;;;6.05;3.75;;;;;;;;;;5093788;28;20043;-56
2024/03/12 09:10:47;;;;;;;5.68;3.58;;;;;;;;;;5088877;28;20036;-57
2024/03/12 09:13:16;;;;;;;5.00;3.20;;;;;;;;;;5088237;28;20054;-56
2024/03/12 09:15:42;;;;;;;5.00;3.08;;;;;;;;;;5088129;28;20032;-57
2024/03/12 09:18:09;;;;;;;5.95;3.60;;;;;;;;;;5094054;28;20055;-57
2024/03/12 09:20:36;;;;;;;5.47;3.40;;;;;;;;;;5093048;28;20027;-57
2024/03/12 09:23:02;;;;;;;5.32;3.60;;;;;;;;;;5094172;28;20035;-57
2024/03/12 09:25:30;;;;;;;6.22;3.50;;;;;;;;;;5093621;28;20475;-57
2024/03/12 09:27:56;;;;;;;6.05;3.45;;;;;;;;;;5093264;28;20028;-57
2024/03/12 09:30:23;;;;;;;4.63;3.15;;;;;;;;;;5089114;28;20545;-58
2024/03/12 09:32:51;;;;;;;6.22;3.20;;;;;;;;;;5093687;28;20100;-57
2024/03/12 09:35:20;;;;;;;4.40;2.70;;;;;;;;;;5094288;28;20529;-56
2024/03/12 09:37:46;;;;;;;5.45;3.38;;;;;;;;;;5092592;28;20020;-57
2024/03/12 09:40:13;;;;;;;6.57;3.30;;;;;;;;;;5091555;28;20024;-59
2024/03/12 09:42:43;;;;;;;5.38;3.00;;;;;;;;;;5093603;28;20483;-60
2024/03/12 09:45:09;;;;;;;7.70;3.15;;;;;;;;;;5088843;28;20028;-59
2024/03/12 09:47:36;;;;;;;7.82;3.28;;;;;;;;;;5094138;28;20078;-59
2024/03/12 09:50:03;;;;;;;8.05;3.67;;;;;;;;;;5091945;28;20027;-59
2024/03/12 09:52:30;;;;;;;6.03;3.30;;;;;;;;;;5093518;28;20028;-57
2024/03/12 09:54:57;;;;;;;6.15;3.35;;;;;;;;;;5089779;28;20048;-60
2024/03/12 09:57:24;;;;;;;6.18;3.05;;;;;;;;;;5093235;28;20447;-59
2024/03/12 09:59:52;;;;;;;9.80;3.75;;;;;;;;;;5093680;28;20024;-60
2024/03/12 10:02:20;;;;;;;4.45;2.83;;;;;;;;;;5093155;28;20012;-60
2024/03/12 10:04:47;;;;;;;6.07;2.95;;;;;;;;;;5092812;28;20455;-58
2024/03/12 10:07:16;;;;;;;4.50;2.85;;;;;;;;;;5093148;28;20395;-59
2024/03/12 10:09:42;;;;;;;6.22;2.97;;;;;;;;;;5092767;28;20437;-57
2024/03/12 10:12:09;;;;;;;9.70;2.58;;;;;;;;;;5091873;28;20047;-59
2024/03/12 10:14:35;;;;;;;5.25;2.70;;;;;;;;;;5092454;28;20048;-59
2024/03/12 10:17:14;;;;;;;8.25;3.00;;;;;;;;;;5092664;28;20031;-59
2024/03/12 10:19:43;;;;;;;4.38;2.58;;;;;;;;;;5092987;28;20105;-58
2024/03/12 10:22:09;;;;;;;5.10;2.85;;;;;;;;;;5092993;28;20035;-59
2024/03/12 10:24:36;;;;;;;5.28;2.80;;;;;;;;;;5093084;28;20024;-59
2024/03/12 10:27:06;;;;;;;4.53;2.85;;;;;;;;;;5091557;28;20024;-59
2024/03/12 10:29:33;;;;;;;8.25;2.22;;;;;;;;;;5089605;28;20032;-59
2024/03/12 10:32:00;;;;;;;3.20;1.85;;;;;;;;;;5100650;28;20459;-58
2024/03/12 10:34:28;;;;;;;8.48;2.63;;;;;;;;;;5093623;28;20475;-60
2024/03/12 10:36:54;;;;;;;6.35;2.30;;;;;;;;;;5092880;28;20476;-57
2024/03/12 10:39:27;;;;;;;3.42;2.00;;;;;;;;;;5092720;28;20029;-59
2024/03/12 10:41:54;;;;;;;;;;;;;;;;;;5086127;28;20021;-57
2024/03/12 10:44:20;;;;;;;5.60;2.28;;;;;;;;;;5092340;28;19908;-60
2024/03/12 10:46:47;;;;;;;4.25;2.13;;;;;;;;;;5091431;28;20020;-59
2024/03/12 10:49:17;;;;;;;4.90;2.10;;;;;;;;;;5087856;28;20111;-60
2024/03/12 10:51:43;;;;;;;5.68;1.98;;;;;;;;;;5092492;28;20036;-60
2024/03/12 10:54:21;;;;;;;5.70;2.72;;;;;;;;;;5092192;28;20035;-58
2024/03/12 10:56:47;;;;;;;6.35;2.10;;;;;;;;;;5092142;28;20028;-58
2024/03/12 10:59:16;;;;;;;6.05;1.70;;;;;;;;;;5092810;28;20509;-60
2024/03/12 11:01:42;;;;;;;4.30;1.95;;;;;;;;;;5092604;28;20054;-59
2024/03/12 11:04:13;;;;;;;3.33;1.67;;;;;;;;;;5090792;28;20103;-60
2024/03/12 11:06:39;;;;;;;3.90;2.15;;;;;;;;;;5087495;28;20028;-60
2024/03/12 11:09:06;;;;;;;4.53;2.17;;;;;;;;;;5092738;28;20046;-60
2024/03/12 11:11:36;;;;;;;5.38;2.10;;;;;;;;;;5091677;28;20054;-59
2024/03/12 11:14:02;;;;;;;4.00;2.03;;;;;;;;;;5082469;28;20101;-60
2024/03/12 11:16:34;;;;;;;4.72;2.03;;;;;;;;;;5087618;28;20019;-60
2024/03/12 11:19:22;;;;;;;5.97;2.28;;;;;;;;;;5091557;28;20055;-60
2024/03/12 11:21:49;;;;;;;4.85;2.55;;;;;;;;;;5091687;28;20036;-60
2024/03/12 11:24:25;;;;;;;8.38;2.95;;;;;;;;;;5091877;28;20039;-60
2024/03/12 11:26:51;;;;;;;4.30;2.65;;;;;;;;;;5073282;28;20097;-59
2024/03/12 11:29:18;;;;;;;4.88;2.40;;;;;;;;;;5085884;28;20032;-60
2024/03/12 11:31:44;;;;;;;5.20;2.42;;;;;;;;;;5098241;28;20028;-60
2024/03/12 11:34:11;;;;;;;3.22;2.10;;;;;;;;;;5085087;28;20028;-59
2024/03/12 11:36:40;;;;;;;5.55;2.47;;;;;;;;;;5091846;28;20028;-60
2024/03/12 11:39:11;;;;;;;5.85;1.98;;;;;;;;;;5088429;28;20119;-60
2024/03/12 11:41:56;;;;;;;3.33;2.20;;;;;;;;;;5088335;28;20020;-58
2024/03/12 11:44:47;;;;;;;3.15;1.60;;;;;;;;;;5086673;28;20121;-60
2024/03/12 11:47:28;;;;;;;3.67;2.40;;;;;;;;;;5083903;28;20077;-58
2024/03/12 11:49:54;;;;;;;3.75;2.30;;;;;;;;;;5091414;28;20387;-60
2024/03/12 11:52:21;;;;;;;4.63;1.98;;;;;;;;;;5088680;28;20032;-61
2024/03/12 11:54:48;;;;;;;4.47;2.55;;;;;;;;;;5090815;28;20024;-58
2024/03/12 11:57:27;;;;;;;4.35;2.55;;;;;;;;;;5076504;28;20032;-61
2024/03/12 11:59:56;;;;;;;5.30;2.60;;;;;;;;;;5086524;28;20020;-57
2024/03/12 12:02:23;;;;;;;5.90;2.35;;;;;;;;;;5084871;28;20058;-58
2024/03/12 12:04:51;;;;;;;3.65;2.28;;;;;;;;;;5082467;28;20074;-56
2024/03/12 12:07:17;;;;;;;4.63;2.80;;;;;;;;;;5092077;28;20113;-56
2024/03/12 12:09:47;;;;;;;4.68;2.75;;;;;;;;;;5091509;28;20111;-57
2024/03/12 12:12:14;;;;;;;6.68;2.88;;;;;;;;;;5091083;28;20039;-56
2024/03/12 12:14:42;;;;;;;4.45;2.50;;;;;;;;;;5088655;28;20036;-56
2024/03/12 12:17:09;;;;;;;4.18;2.60;;;;;;;;;;5091366;28;20483;-56
2024/03/12 12:19:35;;;;;;;4.38;2.30;;;;;;;;;;5090386;28;20086;-56
2024/03/12 12:22:02;;;;;;;6.47;2.88;;;;;;;;;;5089172;28;20051;-59
2024/03/12 12:24:28;;;;;;;3.78;2.33;;;;;;;;;;5094331;28;20032;-57
2024/03/12 12:26:55;;;;;;;5.10;2.65;;;;;;;;;;5090788;28;20480;-56
2024/03/12 12:29:22;;;;;;;3.88;2.30;;;;;;;;;;5088332;28;20028;-56
2024/03/12 12:31:51;;;;;;;4.10;2.17;;;;;;;;;;5091077;28;20024;-57
2024/03/12 12:34:17;;;;;;;6.43;2.25;;;;;;;;;;5091083;28;20081;-57
2024/03/12 12:36:45;;;;;;;6.63;2.85;;;;;;;;;;5091169;28;20407;-55
2024/03/12 12:39:12;;;;;;;4.50;2.50;;;;;;;;;;5084031;28;20036;-54
2024/03/12 12:41:45;;;;;;;4.38;2.00;;;;;;;;;;5080008;28;20048;-57
2024/03/12 12:44:15;;;;;;;3.88;1.92;;;;;;;;;;5085845;28;20063;-57
2024/03/12 12:46:42;;;;;;;4.85;2.20;;;;;;;;;;5091410;28;20124;-56
2024/03/12 12:49:11;;;;;;;3.05;2.10;;;;;;;;;;5092569;28;20043;-56
2024/03/12 12:51:37;;;;;;;3.47;2.28;;;;;;;;;;5100290;28;20086;-55
2024/03/12 12:54:04;;;;;;;8.85;2.83;;;;;;;;;;5081092;28;20032;-55
2024/03/12 12:56:31;;;;;;;2.72;2.20;;;;;;;;;;5082499;28;20101;-54
2024/03/12 12:59:07;;;;;;;4.72;2.25;;;;;;;;;;5086979;28;20032;-59
2024/03/12 13:01:33;;;;;;;3.42;2.08;;;;;;;;;;5088163;28;20030;-57
2024/03/12 13:03:59;;;;;;;7.30;2.50;;;;;;;;;;5090412;28;20471;-56
2024/03/12 13:06:25;;;;;;;3.78;2.58;;;;;;;;;;5092083;28;20028;-59
2024/03/12 13:08:52;;;;;;;5.07;2.63;;;;;;;;;;5092702;28;20480;-60
2024/03/12 13:11:22;;;;;;;6.00;2.60;;;;;;;;;;5090300;28;20031;-60
2024/03/12 13:13:50;;;;;;;7.90;3.40;;;;;;;;;;5090510;28;20488;-60
2024/03/12 13:16:18;;;;;;;5.07;3.13;;;;;;;;;;5089395;28;20484;-59
2024/03/12 13:18:45;;;;;;;4.07;2.55;;;;;;;;;;5090303;28;20055;-59
2024/03/12 13:21:15;;;;;;;4.82;3.08;;;;;;;;;;5090405;28;20046;-60
2024/03/12 13:23:45;;;;;;;3.90;3.05;;;;;;;;;;5085010;28;20102;-59
2024/03/12 13:26:13;;;;;;;3.40;2.53;;;;;;;;;;5089123;28;20105;-60
2024/03/12 13:28:39;;;;;;;5.35;3.15;;;;;;;;;;5085172;28;20379;-60
2024/03/12 13:31:05;;;;;;;7.05;3.30;;;;;;;;;;5082614;28;20115;-60
2024/03/12 13:33:32;;;;;;;4.60;3.00;;;;;;;;;;5088962;28;20034;-59
2024/03/12 13:35:59;;;;;;;8.90;3.13;;;;;;;;;;5090551;28;20107;-60
2024/03/12 13:38:26;;;;;;;5.50;3.38;;;;;;;;;;5083192;28;20544;-60
2024/03/12 13:40:52;;;;;;;4.32;2.72;;;;;;;;;;5093869;28;20112;-60
2024/03/12 13:43:19;;;;;;;5.00;2.78;;;;;;;;;;5092185;28;20024;-60
2024/03/12 13:45:46;;;;;;;5.03;2.40;;;;;;;;;;5092521;28;20498;-60
2024/03/12 13:48:12;;;;;;;3.85;2.50;;;;;;;;;;5084787;28;20464;-60
2024/03/12 13:50:39;;;;;;;7.47;3.00;;;;;;;;;;5091909;28;20114;-60
2024/03/12 13:53:05;;;;;;;4.90;2.78;;;;;;;;;;5093793;28;20476;-60
2024/03/12 13:55:31;;;;;;;6.82;2.97;;;;;;;;;;5089203;28;20033;-60
2024/03/12 13:57:57;;;;;;;3.58;2.10;;;;;;;;;;5083387;28;20021;-60
2024/03/12 14:00:27;;;;;;;4.20;2.33;;;;;;;;;;5084344;28;20040;-58
2024/03/12 14:02:54;;;;;;;4.47;2.90;;;;;;;;;;5091171;28;20433;-60
2024/03/12 14:05:20;;;;;;;7.68;2.67;;;;;;;;;;5088900;28;20031;-59
2024/03/12 14:07:47;;;;;;;5.45;3.10;;;;;;;;;;5092032;28;20035;-60
2024/03/12 14:10:13;;;;;;;4.45;2.95;;;;;;;;;;5090576;28;20062;-59
2024/03/12 14:12:39;;;;;;;6.40;2.90;;;;;;;;;;5084066;28;20488;-60
2024/03/12 14:15:06;;;;;;;6.65;3.58;;;;;;;;;;5085771;28;20115;-60
2024/03/12 14:17:32;;;;;;;6.13;2.92;;;;;;;;;;5089518;28;20377;-57
2024/03/12 14:19:58;;;;;;;4.53;2.58;;;;;;;;;;5089764;28;20048;-55
2024/03/12 14:22:24;;;;;;;4.60;3.03;;;;;;;;;;5093029;28;20066;-55
2024/03/12 14:24:51;;;;;;;6.35;2.55;;;;;;;;;;5092314;28;20070;-56
2024/03/12 14:27:17;;;;;;;5.70;3.47;;;;;;;;;;5082162;28;20024;-56
2024/03/12 14:29:43;;;;;;;5.85;2.95;;;;;;;;;;5086079;28;20033;-56
2024/03/12 14:32:10;;;;;;;5.55;2.55;;;;;;;;;;5083360;28;20032;-59
2024/03/12 14:34:36;;;;;;;8.13;3.47;;;;;;;;;;5090034;28;20035;-56
2024/03/12 14:37:03;;;;;;;9.00;3.60;;;;;;;;;;5091693;28;20020;-55
2024/03/12 14:39:29;;;;;;;8.65;3.58;;;;;;;;;;5082836;28;20024;-56
2024/03/12 14:41:55;;;;;;;10.77;4.28;;;;;;;;;;5089750;28;20078;-56
2024/03/12 14:44:22;;;;;;;10.70;4.30;;;;;;;;;;5092005;28;20028;-58
2024/03/12 14:46:48;;;;;;;6.68;3.85;;;;;;;;;;5092412;28;20024;-56
2024/03/12 14:49:14;;;;;;;6.28;3.65;;;;;;;;;;5088999;28;20344;-56